sensor_id;sensor_type;location;lat;lon;timestamp;pressure;altitude;pressure_sealevel;temperature;humidity
48204;BME280;33994;50.998;5.864;2023-02-22T00:01:01;101003.28;;;5.21;100.00
48204;BME280;33994;50.998;5.864;2023-02-22T00:04:06;101009.38;;;5.25;100.00
48204;BME280;33994;50.998;5.864;2023-02-22T00:07:09;101004.19;;;5.23;100.00
48204;BME280;33994;50.998;5.864;2023-02-22T00:10:13;101004.19;;;5.25;100.00
48204;BME280;33994;50.998;5.864;2023-02-22T00:13:18;101005.91;;;5.23;100.00
48204;BME280;33994;50.998;5.864;2023-02-22T00:16:22;101005.00;;;5.19;100.00
48204;BME280;33994;50.998;5.864;2023-02-22T00:19:27;101002.38;;;5.18;100.00
48204;BME280;33994;50.998;5.864;2023-02-22T00:22:29;101005.84;;;5.17;100.00
48204;BME280;33994;50.998;5.864;2023-02-22T00:25:33;100996.31;;;5.16;100.00
48204;BME280;33994;50.998;5.864;2023-02-22T00:28:36;100992.00;;;5.18;100.00
48204;BME280;33994;50.998;5.864;2023-02-22T00:31:40;100998.06;;;5.15;100.00
48204;BME280;33994;50.998;5.864;2023-02-22T00:34:44;100994.59;;;5.18;100.00
48204;BME280;33994;50.998;5.864;2023-02-22T00:37:48;100993.72;;;5.16;100.00
48204;BME280;33994;50.998;5.864;2023-02-22T00:40:51;100991.97;;;5.12;100.00
48204;BME280;33994;50.998;5.864;2023-02-22T00:43:54;101002.34;;;5.12;100.00
48204;BME280;33994;50.998;5.864;2023-02-22T00:46:57;100998.81;;;5.06;100.00
48204;BME280;33994;50.998;5.864;2023-02-22T00:50:01;100992.75;;;5.06;100.00
48204;BME280;33994;50.998;5.864;2023-02-22T00:53:05;100989.34;;;5.08;100.00
48204;BME280;33994;50.998;5.864;2023-02-22T00:56:08;100972.91;;;5.09;100.00
48204;BME280;33994;50.998;5.864;2023-02-22T00:59:11;100981.59;;;5.12;100.00
48204;BME280;33994;50.998;5.864;2023-02-22T01:02:15;100982.47;;;5.12;100.00
48204;BME280;33994;50.998;5.864;2023-02-22T01:05:24;100981.59;;;5.12;100.00
48204;BME280;33994;50.998;5.864;2023-02-22T01:08:27;100978.09;;;5.09;100.00
48204;BME280;33994;50.998;5.864;2023-02-22T01:11:30;100972.91;;;5.09;100.00
48204;BME280;33994;50.998;5.864;2023-02-22T01:14:33;100973.78;;;5.10;100.00
48204;BME280;33994;50.998;5.864;2023-02-22T01:17:37;100978.97;;;5.10;100.00
48204;BME280;33994;50.998;5.864;2023-02-22T01:20:42;100973.81;;;5.12;100.00
48204;BME280;33994;50.998;5.864;2023-02-22T01:23:45;100972.97;;;5.14;100.00
48204;BME280;33994;50.998;5.864;2023-02-22T01:26:49;100970.38;;;5.11;100.00
48204;BME280;33994;50.998;5.864;2023-02-22T01:29:53;100979.81;;;5.07;100.00
48204;BME280;33994;50.998;5.864;2023-02-22T01:32:57;100978.13;;;5.11;100.00
48204;BME280;33994;50.998;5.864;2023-02-22T01:36:01;100978.13;;;5.13;100.00
48204;BME280;33994;50.998;5.864;2023-02-22T01:39:04;100972.94;;;5.13;100.00
48204;BME280;33994;50.998;5.864;2023-02-22T01:42:08;100969.50;;;5.14;100.00
48204;BME280;33994;50.998;5.864;2023-02-22T01:48:51;100971.19;;;5.08;100.00
48204;BME280;33994;50.998;5.864;2023-02-22T01:51:58;100960.81;;;5.08;100.00
48204;BME280;33994;50.998;5.864;2023-02-22T01:55:04;100960.84;;;5.13;100.00
48204;BME280;33994;50.998;5.864;2023-02-22T01:58:08;100949.63;;;5.11;100.00
48204;BME280;33994;50.998;5.864;2023-02-22T02:01:12;100951.34;;;5.14;100.00
48204;BME280;33994;50.998;5.864;2023-02-22T02:04:18;100948.75;;;5.10;100.00
48204;BME280;33994;50.998;5.864;2023-02-22T02:07:24;100942.66;;;5.10;100.00
48204;BME280;33994;50.998;5.864;2023-02-22T02:10:28;100951.34;;;5.10;100.00
48204;BME280;33994;50.998;5.864;2023-02-22T02:13:31;100940.06;;;5.08;100.00
48204;BME280;33994;50.998;5.864;2023-02-22T02:16:38;100943.53;;;5.07;100.00
48204;BME280;33994;50.998;5.864;2023-02-22T02:19:49;100945.19;;;5.02;100.00
48204;BME280;33994;50.998;5.864;2023-02-22T02:23:03;100947.78;;;5.01;100.00
48204;BME280;33994;50.998;5.864;2023-02-22T02:26:52;100954.66;;;4.99;100.00
48204;BME280;33994;50.998;5.864;2023-02-22T02:30:16;100945.97;;;4.94;100.00
48204;BME280;33994;50.998;5.864;2023-02-22T02:33:32;100952.81;;;4.90;100.00
48204;BME280;33994;50.998;5.864;2023-02-22T02:36:43;100950.19;;;4.87;100.00
48204;BME280;33994;50.998;5.864;2023-02-22T02:39:51;100950.19;;;4.87;100.00
48204;BME280;33994;50.998;5.864;2023-02-22T02:43:00;100942.41;;;4.84;100.00
48204;BME280;33994;50.998;5.864;2023-02-22T02:46:09;100939.81;;;4.85;100.00
48204;BME280;33994;50.998;5.864;2023-02-22T02:49:18;100940.66;;;4.83;100.00
48204;BME280;33994;50.998;5.864;2023-02-22T02:52:23;100932.88;;;4.83;100.00
48204;BME280;33994;50.998;5.864;2023-02-22T02:55:29;100923.34;;;4.79;100.00
48204;BME280;33994;50.998;5.864;2023-02-22T02:58:33;100922.47;;;4.80;100.00
48204;BME280;33994;50.998;5.864;2023-02-22T03:01:48;100914.69;;;4.78;100.00
48204;BME280;33994;50.998;5.864;2023-02-22T03:05:07;100913.78;;;4.75;100.00
48204;BME280;33994;50.998;5.864;2023-02-22T03:08:16;100916.34;;;4.72;100.00
48204;BME280;33994;50.998;5.864;2023-02-22T03:11:26;100919.75;;;4.66;100.00
48204;BME280;33994;50.998;5.864;2023-02-22T03:14:37;100913.59;;;4.56;100.00
48204;BME280;33994;50.998;5.864;2023-02-22T03:17:47;100914.38;;;4.48;100.00
48204;BME280;33994;50.998;5.864;2023-02-22T03:20:57;100910.88;;;4.43;100.00
48204;BME280;33994;50.998;5.864;2023-02-22T03:24:07;100901.31;;;4.38;100.00
48204;BME280;33994;50.998;5.864;2023-02-22T03:27:17;100901.28;;;4.35;100.00
48204;BME280;33994;50.998;5.864;2023-02-22T03:30:26;100897.84;;;4.36;100.00
48204;BME280;33994;50.998;5.864;2023-02-22T03:33:39;100893.47;;;4.34;100.00
48204;BME280;33994;50.998;5.864;2023-02-22T03:36:47;100894.34;;;4.33;100.00
48204;BME280;33994;50.998;5.864;2023-02-22T03:39:53;100886.53;;;4.30;100.00
48204;BME280;33994;50.998;5.864;2023-02-22T03:43:01;100877.84;;;4.25;100.00
48204;BME280;33994;50.998;5.864;2023-02-22T03:46:08;100877.81;;;4.22;100.00
48204;BME280;33994;50.998;5.864;2023-02-22T03:49:17;100880.38;;;4.20;100.00
48204;BME280;33994;50.998;5.864;2023-02-22T03:52:23;100872.59;;;4.17;100.00
48204;BME280;33994;50.998;5.864;2023-02-22T03:55:27;100866.44;;;4.10;100.00
48204;BME280;33994;50.998;5.864;2023-02-22T03:58:30;100865.53;;;4.07;100.00
48204;BME280;33994;50.998;5.864;2023-02-22T04:01:36;100868.97;;;4.04;100.00
48204;BME280;33994;50.998;5.864;2023-02-22T04:04:39;100864.63;;;4.03;100.00
48204;BME280;33994;50.998;5.864;2023-02-22T04:07:43;100864.63;;;4.02;100.00
48204;BME280;33994;50.998;5.864;2023-02-22T04:10:47;100856.88;;;4.02;100.00
48204;BME280;33994;50.998;5.864;2023-02-22T04:13:49;100855.97;;;3.98;100.00
48204;BME280;33994;50.998;5.864;2023-02-22T04:16:53;100862.84;;;3.96;100.00
48204;BME280;33994;50.998;5.864;2023-02-22T04:19:56;100861.94;;;3.94;100.00
48204;BME280;33994;50.998;5.864;2023-02-22T04:23:01;100855.00;;;3.92;100.00
48204;BME280;33994;50.998;5.864;2023-02-22T04:26:04;100855.88;;;3.92;100.00
48204;BME280;33994;50.998;5.864;2023-02-22T04:29:07;100856.72;;;3.89;100.00
48204;BME280;33994;50.998;5.864;2023-02-22T04:32:10;100854.13;;;3.91;100.00
48204;BME280;33994;50.998;5.864;2023-02-22T04:35:14;100848.09;;;3.91;100.00
48204;BME280;33994;50.998;5.864;2023-02-22T04:38:18;100845.47;;;3.86;100.00
48204;BME280;33994;50.998;5.864;2023-02-22T04:41:22;100842.81;;;3.83;100.00
48204;BME280;33994;50.998;5.864;2023-02-22T04:44:25;100841.97;;;3.84;100.00
48204;BME280;33994;50.998;5.864;2023-02-22T04:47:28;100835.06;;;3.83;100.00
48204;BME280;33994;50.998;5.864;2023-02-22T04:50:31;100824.72;;;3.83;100.00
48204;BME280;33994;50.998;5.864;2023-02-22T04:53:36;100822.09;;;3.80;100.00
48204;BME280;33994;50.998;5.864;2023-02-22T04:56:38;100825.53;;;3.80;100.00
48204;BME280;33994;50.998;5.864;2023-02-22T04:59:42;100816.09;;;3.81;100.00
48204;BME280;33994;50.998;5.864;2023-02-22T05:02:45;100810.00;;;3.77;100.00
48204;BME280;33994;50.998;5.864;2023-02-22T05:05:48;100805.66;;;3.75;100.00
48204;BME280;33994;50.998;5.864;2023-02-22T05:08:52;100803.00;;;3.72;100.00
48204;BME280;33994;50.998;5.864;2023-02-22T05:11:55;100802.16;;;3.70;100.00
48204;BME280;33994;50.998;5.864;2023-02-22T05:14:58;100799.50;;;3.67;100.00
48204;BME280;33994;50.998;5.864;2023-02-22T05:18:01;100802.91;;;3.64;100.00
48204;BME280;33994;50.998;5.864;2023-02-22T05:21:05;100795.97;;;3.61;100.00
48204;BME280;33994;50.998;5.864;2023-02-22T05:24:09;100795.97;;;3.60;100.00
48204;BME280;33994;50.998;5.864;2023-02-22T05:27:13;100786.44;;;3.57;100.00
48204;BME280;33994;50.998;5.864;2023-02-22T05:30:16;100782.13;;;3.55;100.00
48204;BME280;33994;50.998;5.864;2023-02-22T05:33:19;100773.50;;;3.54;100.00
48204;BME280;33994;50.998;5.864;2023-02-22T05:36:22;100768.31;;;3.54;100.00
48204;BME280;33994;50.998;5.864;2023-02-22T05:39:26;100770.81;;;3.50;100.00
48204;BME280;33994;50.998;5.864;2023-02-22T05:42:29;100756.16;;;3.49;100.00
48204;BME280;33994;50.998;5.864;2023-02-22T05:45:32;100763.06;;;3.50;100.00
48204;BME280;33994;50.998;5.864;2023-02-22T05:48:35;100763.97;;;3.50;100.00
48204;BME280;33994;50.998;5.864;2023-02-22T05:51:38;100757.03;;;3.48;100.00
48204;BME280;33994;50.998;5.864;2023-02-22T05:54:43;100760.38;;;3.42;100.00
48204;BME280;33994;50.998;5.864;2023-02-22T05:57:46;100758.59;;;3.38;100.00
48204;BME280;33994;50.998;5.864;2023-02-22T06:00:50;100753.44;;;3.36;100.00
48204;BME280;33994;50.998;5.864;2023-02-22T06:03:53;100756.00;;;3.36;100.00
48204;BME280;33994;50.998;5.864;2023-02-22T06:06:57;100747.41;;;3.36;100.00
48204;BME280;33994;50.998;5.864;2023-02-22T06:10:04;100740.47;;;3.35;100.00
48204;BME280;33994;50.998;5.864;2023-02-22T06:13:08;100740.47;;;3.33;100.00
48204;BME280;33994;50.998;5.864;2023-02-22T06:16:11;100739.53;;;3.30;100.00
48204;BME280;33994;50.998;5.864;2023-02-22T06:19:14;100733.47;;;3.26;100.00
48204;BME280;33994;50.998;5.864;2023-02-22T06:22:18;100738.56;;;3.22;100.00
48204;BME280;33994;50.998;5.864;2023-02-22T06:25:24;100737.72;;;3.21;100.00
48204;BME280;33994;50.998;5.864;2023-02-22T06:28:28;100734.31;;;3.24;100.00
48204;BME280;33994;50.998;5.864;2023-02-22T06:31:31;100741.16;;;3.22;100.00
48204;BME280;33994;50.998;5.864;2023-02-22T06:34:34;100739.38;;;3.18;100.00
48204;BME280;33994;50.998;5.864;2023-02-22T06:37:38;100739.38;;;3.18;100.00
48204;BME280;33994;50.998;5.864;2023-02-22T06:40:42;100737.66;;;3.20;100.00
48204;BME280;33994;50.998;5.864;2023-02-22T06:43:46;100735.09;;;3.20;100.00
48204;BME280;33994;50.998;5.864;2023-02-22T06:46:50;100737.72;;;3.23;100.00
48204;BME280;33994;50.998;5.864;2023-02-22T06:49:54;100737.72;;;3.23;100.00
48204;BME280;33994;50.998;5.864;2023-02-22T06:52:58;100730.88;;;3.25;100.00
48204;BME280;33994;50.998;5.864;2023-02-22T06:56:03;100729.97;;;3.23;100.00
48204;BME280;33994;50.998;5.864;2023-02-22T06:59:06;100723.97;;;3.24;100.00
48204;BME280;33994;50.998;5.864;2023-02-22T07:02:10;100730.00;;;3.24;100.00
48204;BME280;33994;50.998;5.864;2023-02-22T07:05:15;100724.00;;;3.27;100.00
48204;BME280;33994;50.998;5.864;2023-02-22T07:08:18;100726.63;;;3.30;100.00
48204;BME280;33994;50.998;5.864;2023-02-22T07:11:23;100724.06;;;3.31;100.00
48204;BME280;33994;50.998;5.864;2023-02-22T07:14:27;100726.72;;;3.36;100.00
48204;BME280;33994;50.998;5.864;2023-02-22T07:17:30;100723.28;;;3.37;100.00
48204;BME280;33994;50.998;5.864;2023-02-22T07:20:33;100732.75;;;3.38;100.00
48204;BME280;33994;50.998;5.864;2023-02-22T07:23:36;100725.03;;;3.43;100.00
48204;BME280;33994;50.998;5.864;2023-02-22T07:26:41;100732.03;;;3.47;100.00
48204;BME280;33994;50.998;5.864;2023-02-22T07:29:44;100726.91;;;3.53;100.00
48204;BME280;33994;50.998;5.864;2023-02-22T07:32:48;100730.41;;;3.56;100.00
48204;BME280;33994;50.998;5.864;2023-02-22T07:35:50;100726.09;;;3.55;100.00
48204;BME280;33994;50.998;5.864;2023-02-22T07:38:54;100728.72;;;3.60;100.00
48204;BME280;33994;50.998;5.864;2023-02-22T07:41:58;100733.13;;;3.66;100.00
48204;BME280;33994;50.998;5.864;2023-02-22T07:45:01;100727.13;;;3.70;100.00
48204;BME280;33994;50.998;5.864;2023-02-22T07:48:04;100740.97;;;3.75;100.00
48204;BME280;33994;50.998;5.864;2023-02-22T07:51:08;100741.88;;;3.80;100.00
48204;BME280;33994;50.998;5.864;2023-02-22T07:54:11;100734.16;;;3.84;100.00
48204;BME280;33994;50.998;5.864;2023-02-22T07:57:15;100730.78;;;3.92;100.00
48204;BME280;33994;50.998;5.864;2023-02-22T08:00:22;100732.56;;;3.96;100.00
48204;BME280;33994;50.998;5.864;2023-02-22T08:03:25;100730.06;;;4.00;100.00
48204;BME280;33994;50.998;5.864;2023-02-22T08:06:29;100729.22;;;4.06;100.00
48204;BME280;33994;50.998;5.864;2023-02-22T08:09:32;100730.13;;;4.11;100.00
48204;BME280;33994;50.998;5.864;2023-02-22T08:12:36;100724.13;;;4.15;99.89
48204;BME280;33994;50.998;5.864;2023-02-22T08:15:40;100725.03;;;4.19;99.74
48204;BME280;33994;50.998;5.864;2023-02-22T08:18:44;100726.81;;;4.23;99.41
48204;BME280;33994;50.998;5.864;2023-02-22T08:21:47;100726.84;;;4.27;99.46
48204;BME280;33994;50.998;5.864;2023-02-22T08:24:50;100720.00;;;4.32;99.06
48204;BME280;33994;50.998;5.864;2023-02-22T08:27:58;100721.75;;;4.35;99.16
48204;BME280;33994;50.998;5.864;2023-02-22T08:31:02;100720.06;;;4.40;99.01
48204;BME280;33994;50.998;5.864;2023-02-22T08:34:05;100721.81;;;4.44;98.84
48204;BME280;33994;50.998;5.864;2023-02-22T08:37:08;100712.34;;;4.49;98.50
48204;BME280;33994;50.998;5.864;2023-02-22T08:40:12;100721.91;;;4.53;98.59
48204;BME280;33994;50.998;5.864;2023-02-22T08:43:17;100725.41;;;4.58;98.43
48204;BME280;33994;50.998;5.864;2023-02-22T08:46:21;100720.25;;;4.63;98.40
48204;BME280;33994;50.998;5.864;2023-02-22T08:49:24;100728.91;;;4.68;98.32
48204;BME280;33994;50.998;5.864;2023-02-22T08:52:27;100728.97;;;4.73;98.49
48204;BME280;33994;50.998;5.864;2023-02-22T08:55:33;100722.94;;;4.77;98.65
48204;BME280;33994;50.998;5.864;2023-02-22T08:58:38;100723.00;;;4.84;98.73
48204;BME280;33994;50.998;5.864;2023-02-22T09:01:41;100723.03;;;4.89;98.41
48204;BME280;33994;50.998;5.864;2023-02-22T09:04:44;100718.75;;;4.94;98.13
48204;BME280;33994;50.998;5.864;2023-02-22T09:07:48;100717.09;;;5.01;97.62
48204;BME280;33994;50.998;5.864;2023-02-22T09:10:51;100706.75;;;5.08;97.58
48204;BME280;33994;50.998;5.864;2023-02-22T09:13:56;100712.81;;;5.12;97.37
48204;BME280;33994;50.998;5.864;2023-02-22T09:17:00;100712.88;;;5.18;97.10
48204;BME280;33994;50.998;5.864;2023-02-22T09:20:04;100708.56;;;5.23;97.01
48204;BME280;33994;50.998;5.864;2023-02-22T09:23:08;100707.72;;;5.29;97.15
48204;BME280;33994;50.998;5.864;2023-02-22T09:26:12;100710.34;;;5.35;97.23
48204;BME280;33994;50.998;5.864;2023-02-22T09:29:16;100703.47;;;5.42;97.05
48204;BME280;33994;50.998;5.864;2023-02-22T09:32:19;100699.19;;;5.50;97.22
48204;BME280;33994;50.998;5.864;2023-02-22T09:35:23;100695.75;;;5.57;96.77
48204;BME280;33994;50.998;5.864;2023-02-22T09:38:26;100694.91;;;5.64;96.75
48204;BME280;33994;50.998;5.864;2023-02-22T09:41:33;100685.41;;;5.72;96.73
48204;BME280;33994;50.998;5.864;2023-02-22T09:44:43;100680.25;;;5.80;96.41
48204;BME280;33994;50.998;5.864;2023-02-22T09:47:51;100687.19;;;5.87;95.52
48204;BME280;33994;50.998;5.864;2023-02-22T09:50:58;100682.00;;;5.96;95.41
48204;BME280;33994;50.998;5.864;2023-02-22T09:54:07;100675.97;;;6.03;95.01
48204;BME280;33994;50.998;5.864;2023-02-22T09:57:17;100671.66;;;6.10;95.35
48204;BME280;33994;50.998;5.864;2023-02-22T10:00:23;100679.44;;;6.18;95.20
48204;BME280;33994;50.998;5.864;2023-02-22T10:03:34;100675.13;;;6.26;94.93
48204;BME280;33994;50.998;5.864;2023-02-22T10:06:38;100677.69;;;6.32;94.42
48204;BME280;33994;50.998;5.864;2023-02-22T10:09:46;100678.56;;;6.37;94.19
48204;BME280;33994;50.998;5.864;2023-02-22T10:12:57;100677.72;;;6.44;94.35
48204;BME280;33994;50.998;5.864;2023-02-22T10:16:09;100684.63;;;6.53;94.25
48204;BME280;33994;50.998;5.864;2023-02-22T10:19:21;100675.94;;;6.58;93.93
48204;BME280;33994;50.998;5.864;2023-02-22T10:22:36;100681.13;;;6.66;93.58
48204;BME280;33994;50.998;5.864;2023-02-22T10:25:43;100680.25;;;6.73;93.20
48204;BME280;33994;50.998;5.864;2023-02-22T10:28:52;100678.50;;;6.85;92.65
48204;BME280;33994;50.998;5.864;2023-02-22T10:31:58;100671.56;;;6.91;91.37
48204;BME280;33994;50.998;5.864;2023-02-22T10:35:05;100675.88;;;7.03;91.49
48204;BME280;33994;50.998;5.864;2023-02-22T10:38:19;100676.69;;;7.13;91.22
48204;BME280;33994;50.998;5.864;2023-02-22T10:41:27;100667.13;;;7.24;91.44
48204;BME280;33994;50.998;5.864;2023-02-22T10:44:31;100667.94;;;7.35;91.47
48204;BME280;33994;50.998;5.864;2023-02-22T10:47:36;100672.28;;;7.45;91.26
48204;BME280;33994;50.998;5.864;2023-02-22T10:50:41;100670.50;;;7.55;90.94
48204;BME280;33994;50.998;5.864;2023-02-22T10:53:55;100674.78;;;7.67;90.70
48204;BME280;33994;50.998;5.864;2023-02-22T10:57:00;100657.38;;;7.78;90.57
48204;BME280;33994;50.998;5.864;2023-02-22T11:00:14;100652.94;;;7.88;90.37
48204;BME280;33994;50.998;5.864;2023-02-22T11:03:21;100658.97;;;7.97;90.37
48204;BME280;33994;50.998;5.864;2023-02-22T11:06:25;100654.56;;;8.09;90.12
48204;BME280;33994;50.998;5.864;2023-02-22T11:09:29;100659.66;;;8.21;89.34
48204;BME280;33994;50.998;5.864;2023-02-22T11:12:33;100653.50;;;8.30;88.59
48204;BME280;33994;50.998;5.864;2023-02-22T11:15:37;100652.53;;;8.41;87.97
48204;BME280;33994;50.998;5.864;2023-02-22T11:18:42;100643.75;;;8.50;87.62
48204;BME280;33994;50.998;5.864;2023-02-22T11:21:45;100638.44;;;8.64;87.37
48204;BME280;33994;50.998;5.864;2023-02-22T11:24:51;100640.06;;;8.77;86.68
48204;BME280;33994;50.998;5.864;2023-02-22T11:28:06;100632.06;;;8.91;85.01
48204;BME280;33994;50.998;5.864;2023-02-22T11:31:14;100628.53;;;8.96;84.43
48204;BME280;33994;50.998;5.864;2023-02-22T11:34:28;100625.00;;;9.00;83.79
48204;BME280;33994;50.998;5.864;2023-02-22T11:37:34;100629.28;;;9.08;83.98
48204;BME280;33994;50.998;5.864;2023-02-22T11:40:37;100622.22;;;9.16;83.95
48204;BME280;33994;50.998;5.864;2023-02-22T11:43:41;100626.44;;;9.24;83.65
48204;BME280;33994;50.998;5.864;2023-02-22T11:46:45;100624.66;;;9.31;83.30
48204;BME280;33994;50.998;5.864;2023-02-22T11:49:50;100620.22;;;9.36;83.08
48204;BME280;33994;50.998;5.864;2023-02-22T11:53:16;100624.50;;;9.43;82.55
48204;BME280;33994;50.998;5.864;2023-02-22T11:56:30;100629.56;;;9.53;82.73
48204;BME280;33994;50.998;5.864;2023-02-22T11:59:40;100629.53;;;9.57;82.43
48204;BME280;33994;50.998;5.864;2023-02-22T12:02:57;100617.31;;;9.61;82.09
48204;BME280;33994;50.998;5.864;2023-02-22T12:06:17;100614.63;;;9.64;82.08
48204;BME280;33994;50.998;5.864;2023-02-22T12:09:27;100616.28;;;9.71;81.69
48204;BME280;33994;50.998;5.864;2023-02-22T12:12:40;100614.41;;;9.79;81.85
48204;BME280;33994;50.998;5.864;2023-02-22T12:15:54;100620.44;;;9.84;81.69
48204;BME280;33994;50.998;5.864;2023-02-22T12:19:12;100620.25;;;9.95;81.37
48204;BME280;33994;50.998;5.864;2023-02-22T12:22:21;100617.59;;;10.00;81.58
48204;BME280;33994;50.998;5.864;2023-02-22T12:25:30;100615.75;;;10.05;81.71
48204;BME280;33994;50.998;5.864;2023-02-22T12:28:35;100620.91;;;10.09;81.16
48204;BME280;33994;50.998;5.864;2023-02-22T12:31:41;100614.72;;;10.15;81.76
48204;BME280;33994;50.998;5.864;2023-02-22T12:34:48;100612.03;;;10.18;81.75
48204;BME280;33994;50.998;5.864;2023-02-22T12:38:01;100607.63;;;10.21;81.47
48204;BME280;33994;50.998;5.864;2023-02-22T12:41:08;100617.16;;;10.26;81.94
48204;BME280;33994;50.998;5.864;2023-02-22T12:44:17;100613.63;;;10.28;81.86
48204;BME280;33994;50.998;5.864;2023-02-22T12:47:30;100609.19;;;10.33;81.67
48204;BME280;33994;50.998;5.864;2023-02-22T12:50:36;100606.50;;;10.36;81.86
48204;BME280;33994;50.998;5.864;2023-02-22T12:53:48;100610.78;;;10.42;81.74
48204;BME280;33994;50.998;5.864;2023-02-22T12:56:57;100614.22;;;10.44;81.86
48204;BME280;33994;50.998;5.864;2023-02-22T13:00:05;100606.31;;;10.47;81.82
48204;BME280;33994;50.998;5.864;2023-02-22T13:03:26;100602.75;;;10.53;81.69
48204;BME280;33994;50.998;5.864;2023-02-22T13:06:41;100600.09;;;10.54;81.89
48204;BME280;33994;50.998;5.864;2023-02-22T13:10:02;100598.28;;;10.58;81.38
48204;BME280;33994;50.998;5.864;2023-02-22T13:13:14;100593.81;;;10.63;81.42
48204;BME280;33994;50.998;5.864;2023-02-22T13:16:28;100597.88;;;10.79;82.55
48204;BME280;33994;50.998;5.864;2023-02-22T13:19:42;100597.84;;;10.81;81.25
48204;BME280;33994;50.998;5.864;2023-02-22T13:22:49;100593.53;;;10.78;81.08
48204;BME280;33994;50.998;5.864;2023-02-22T13:25:57;100598.00;;;10.73;79.94
48204;BME280;33994;50.998;5.864;2023-02-22T13:29:06;100604.13;;;10.72;80.91
48204;BME280;33994;50.998;5.864;2023-02-22T13:32:23;100599.84;;;10.68;80.67
48204;BME280;33994;50.998;5.864;2023-02-22T13:35:42;100600.66;;;10.70;80.56
48204;BME280;33994;50.998;5.864;2023-02-22T13:39:11;100602.47;;;10.66;80.07
48204;BME280;33994;50.998;5.864;2023-02-22T13:42:44;100609.47;;;10.66;80.14
48204;BME280;33994;50.998;5.864;2023-02-22T13:46:08;100604.28;;;10.63;80.18
48204;BME280;33994;50.998;5.864;2023-02-22T13:52:47;100599.19;;;10.57;80.83
48204;BME280;33994;50.998;5.864;2023-02-22T13:55:55;100605.31;;;10.54;81.17
48204;BME280;33994;50.998;5.864;2023-02-22T13:59:01;100609.69;;;10.52;81.13
48204;BME280;33994;50.998;5.864;2023-02-22T14:02:05;100611.44;;;10.53;81.41
48204;BME280;33994;50.998;5.864;2023-02-22T14:05:35;100599.28;;;10.51;81.32
48204;BME280;33994;50.998;5.864;2023-02-22T14:08:47;100603.69;;;10.49;81.36
48204;BME280;33994;50.998;5.864;2023-02-22T14:11:50;100608.94;;;10.49;81.72
48204;BME280;33994;50.998;5.864;2023-02-22T14:15:13;100602.81;;;10.48;81.57
48204;BME280;33994;50.998;5.864;2023-02-22T14:18:17;100609.78;;;10.47;81.71
48204;BME280;33994;50.998;5.864;2023-02-22T14:21:20;100609.84;;;10.44;81.78
48204;BME280;33994;50.998;5.864;2023-02-22T14:24:24;100613.34;;;10.43;82.04
48204;BME280;33994;50.998;5.864;2023-02-22T14:27:38;100611.63;;;10.42;81.75
48204;BME280;33994;50.998;5.864;2023-02-22T14:30:43;100612.50;;;10.43;81.92
48204;BME280;33994;50.998;5.864;2023-02-22T14:34:06;100620.38;;;10.41;81.91
48204;BME280;33994;50.998;5.864;2023-02-22T14:37:13;100618.59;;;10.43;82.14
48204;BME280;33994;50.998;5.864;2023-02-22T14:40:20;100624.66;;;10.45;82.11
48204;BME280;33994;50.998;5.864;2023-02-22T14:43:25;100619.44;;;10.45;82.13
48204;BME280;33994;50.998;5.864;2023-02-22T14:46:33;100620.25;;;10.47;82.07
48204;BME280;33994;50.998;5.864;2023-02-22T14:49:41;100626.38;;;10.46;82.07
48204;BME280;33994;50.998;5.864;2023-02-22T14:52:54;100621.19;;;10.45;82.20
48204;BME280;33994;50.998;5.864;2023-02-22T14:56:00;100627.28;;;10.45;82.32
48204;BME280;33994;50.998;5.864;2023-02-22T14:59:13;100630.75;;;10.44;82.41
48204;BME280;33994;50.998;5.864;2023-02-22T15:02:18;100623.84;;;10.40;82.64
48204;BME280;33994;50.998;5.864;2023-02-22T15:05:21;100637.00;;;10.37;82.67
48204;BME280;33994;50.998;5.864;2023-02-22T15:08:24;100633.50;;;10.37;82.82
48204;BME280;33994;50.998;5.864;2023-02-22T15:11:29;100637.97;;;10.32;83.20
48204;BME280;33994;50.998;5.864;2023-02-22T15:14:34;100634.53;;;10.30;83.58
48204;BME280;33994;50.998;5.864;2023-02-22T15:17:39;100635.38;;;10.29;83.78
48204;BME280;33994;50.998;5.864;2023-02-22T15:20:42;100635.47;;;10.26;83.96
48204;BME280;33994;50.998;5.864;2023-02-22T15:23:46;100625.06;;;10.22;84.13
48204;BME280;33994;50.998;5.864;2023-02-22T15:26:51;100627.69;;;10.21;84.32
48204;BME280;33994;50.998;5.864;2023-02-22T15:29:58;100629.47;;;10.19;84.74
48204;BME280;33994;50.998;5.864;2023-02-22T15:33:14;100625.19;;;10.15;84.93
48204;BME280;33994;50.998;5.864;2023-02-22T15:36:19;100636.50;;;10.14;85.58
48204;BME280;33994;50.998;5.864;2023-02-22T15:39:25;100635.69;;;10.12;85.39
48204;BME280;33994;50.998;5.864;2023-02-22T15:42:28;100640.00;;;10.13;86.19
48204;BME280;33994;50.998;5.864;2023-02-22T15:45:31;100642.63;;;10.13;86.41
48204;BME280;33994;50.998;5.864;2023-02-22T15:48:35;100637.44;;;10.10;86.16
48204;BME280;33994;50.998;5.864;2023-02-22T15:51:41;100641.84;;;10.06;86.42
48204;BME280;33994;50.998;5.864;2023-02-22T15:54:46;100638.41;;;10.03;86.54
48204;BME280;33994;50.998;5.864;2023-02-22T15:57:51;100634.13;;;9.98;86.50
48204;BME280;33994;50.998;5.864;2023-02-22T16:01:00;100643.75;;;9.96;86.63
48204;BME280;33994;50.998;5.864;2023-02-22T16:04:05;100642.94;;;9.93;86.85
48204;BME280;33994;50.998;5.864;2023-02-22T16:07:12;100646.47;;;9.89;87.04
48204;BME280;33994;50.998;5.864;2023-02-22T16:10:24;100641.25;;;9.87;87.18
48204;BME280;33994;50.998;5.864;2023-02-22T16:13:31;100648.31;;;9.84;87.38
48204;BME280;33994;50.998;5.864;2023-02-22T16:16:36;100652.66;;;9.83;87.83
48204;BME280;33994;50.998;5.864;2023-02-22T16:19:42;100661.38;;;9.82;88.54
48204;BME280;33994;50.998;5.864;2023-02-22T16:22:46;100645.75;;;9.79;89.18
48204;BME280;33994;50.998;5.864;2023-02-22T16:26:21;100660.59;;;9.76;90.53